sensor_id;sensor_type;location;lat;lon;timestamp;temperature;humidity
9790;DHT22;4934;50.852;8.098;2022-12-18T00:01:47;-6.00;99.90
9790;DHT22;4934;50.852;8.098;2022-12-18T00:04:21;-6.10;99.90
9790;DHT22;4934;50.852;8.098;2022-12-18T00:06:47;-6.20;99.90
9790;DHT22;4934;50.852;8.098;2022-12-18T00:09:15;-6.30;99.90
9790;DHT22;4934;50.852;8.098;2022-12-18T00:11:41;-6.20;99.90
9790;DHT22;4934;50.852;8.098;2022-12-18T00:14:06;-6.20;99.90
9790;DHT22;4934;50.852;8.098;2022-12-18T00:16:32;-6.30;99.90
9790;DHT22;4934;50.852;8.098;2022-12-18T00:19:00;-6.30;99.90
9790;DHT22;4934;50.852;8.098;2022-12-18T00:21:28;-6.30;99.90
9790;DHT22;4934;50.852;8.098;2022-12-18T00:23:54;-6.40;99.90
9790;DHT22;4934;50.852;8.098;2022-12-18T00:26:26;-6.40;99.90
9790;DHT22;4934;50.852;8.098;2022-12-18T00:28:52;-6.70;99.90
9790;DHT22;4934;50.852;8.098;2022-12-18T00:31:23;-6.90;99.90
9790;DHT22;4934;50.852;8.098;2022-12-18T00:33:49;-6.70;99.90
9790;DHT22;4934;50.852;8.098;2022-12-18T00:36:20;-6.60;99.90
9790;DHT22;4934;50.852;8.098;2022-12-18T00:38:48;-6.50;99.90
9790;DHT22;4934;50.852;8.098;2022-12-18T00:41:15;-6.40;99.90
9790;DHT22;4934;50.852;8.098;2022-12-18T00:44:03;-6.40;99.90
9790;DHT22;4934;50.852;8.098;2022-12-18T00:46:29;-6.30;99.90
9790;DHT22;4934;50.852;8.098;2022-12-18T00:48:55;-6.40;99.90
9790;DHT22;4934;50.852;8.098;2022-12-18T00:51:20;-6.60;99.90
9790;DHT22;4934;50.852;8.098;2022-12-18T00:53:46;-6.60;99.90
9790;DHT22;4934;50.852;8.098;2022-12-18T00:56:11;-6.80;99.90
9790;DHT22;4934;50.852;8.098;2022-12-18T00:58:37;-6.80;99.90
9790;DHT22;4934;50.852;8.098;2022-12-18T01:01:06;-6.90;99.90
9790;DHT22;4934;50.852;8.098;2022-12-18T01:03:32;-7.00;99.90
9790;DHT22;4934;50.852;8.098;2022-12-18T01:05:58;-7.10;99.90
9790;DHT22;4934;50.852;8.098;2022-12-18T01:08:24;-7.30;99.90
9790;DHT22;4934;50.852;8.098;2022-12-18T01:10:51;-7.30;99.90
9790;DHT22;4934;50.852;8.098;2022-12-18T01:13:16;-7.30;99.90
9790;DHT22;4934;50.852;8.098;2022-12-18T01:15:49;-7.30;99.90
9790;DHT22;4934;50.852;8.098;2022-12-18T01:18:14;-7.20;99.90
9790;DHT22;4934;50.852;8.098;2022-12-18T01:20:40;-7.40;99.90
9790;DHT22;4934;50.852;8.098;2022-12-18T01:23:06;-7.50;99.90
9790;DHT22;4934;50.852;8.098;2022-12-18T01:25:31;-7.60;99.90
9790;DHT22;4934;50.852;8.098;2022-12-18T01:27:57;-7.80;99.90
9790;DHT22;4934;50.852;8.098;2022-12-18T01:30:22;-7.90;99.90
9790;DHT22;4934;50.852;8.098;2022-12-18T01:32:48;-8.00;99.90
9790;DHT22;4934;50.852;8.098;2022-12-18T01:35:14;-8.00;99.90
9790;DHT22;4934;50.852;8.098;2022-12-18T01:37:39;-8.00;99.90
9790;DHT22;4934;50.852;8.098;2022-12-18T01:40:05;-8.10;99.90
9790;DHT22;4934;50.852;8.098;2022-12-18T01:42:31;-8.10;99.90
9790;DHT22;4934;50.852;8.098;2022-12-18T01:48:12;-8.20;99.90
9790;DHT22;4934;50.852;8.098;2022-12-18T01:50:35;-8.30;99.90
9790;DHT22;4934;50.852;8.098;2022-12-18T01:55:35;-8.00;99.90
9790;DHT22;4934;50.852;8.098;2022-12-18T01:58:03;-8.20;99.90
9790;DHT22;4934;50.852;8.098;2022-12-18T02:00:30;-8.20;99.90
9790;DHT22;4934;50.852;8.098;2022-12-18T02:02:56;-8.30;99.90
9790;DHT22;4934;50.852;8.098;2022-12-18T02:05:36;-8.30;99.90
9790;DHT22;4934;50.852;8.098;2022-12-18T02:08:33;-8.30;99.90
9790;DHT22;4934;50.852;8.098;2022-12-18T02:11:45;-8.20;99.90
9790;DHT22;4934;50.852;8.098;2022-12-18T02:19:00;-8.30;99.90
9790;DHT22;4934;50.852;8.098;2022-12-18T02:21:41;-8.30;99.90
9790;DHT22;4934;50.852;8.098;2022-12-18T02:24:29;-8.20;99.90
9790;DHT22;4934;50.852;8.098;2022-12-18T02:27:00;-8.10;99.90
9790;DHT22;4934;50.852;8.098;2022-12-18T02:29:54;-8.10;99.90
9790;DHT22;4934;50.852;8.098;2022-12-18T02:32:27;-8.00;99.90
9790;DHT22;4934;50.852;8.098;2022-12-18T02:34:56;-7.90;99.90
9790;DHT22;4934;50.852;8.098;2022-12-18T02:37:23;-7.80;99.90
9790;DHT22;4934;50.852;8.098;2022-12-18T02:39:51;-7.70;99.90
9790;DHT22;4934;50.852;8.098;2022-12-18T02:42:17;-7.50;99.90
9790;DHT22;4934;50.852;8.098;2022-12-18T02:44:49;-7.30;99.90
9790;DHT22;4934;50.852;8.098;2022-12-18T02:47:19;-7.20;99.90
9790;DHT22;4934;50.852;8.098;2022-12-18T02:52:55;-7.30;99.90
9790;DHT22;4934;50.852;8.098;2022-12-18T03:01:28;-7.20;99.90
9790;DHT22;4934;50.852;8.098;2022-12-18T03:04:04;-7.30;99.90
9790;DHT22;4934;50.852;8.098;2022-12-18T03:06:37;-7.30;99.90
9790;DHT22;4934;50.852;8.098;2022-12-18T03:09:12;-7.40;99.90
9790;DHT22;4934;50.852;8.098;2022-12-18T03:11:42;-7.30;99.90
9790;DHT22;4934;50.852;8.098;2022-12-18T03:14:30;-7.30;99.90
9790;DHT22;4934;50.852;8.098;2022-12-18T03:17:00;-7.30;99.90
9790;DHT22;4934;50.852;8.098;2022-12-18T03:19:29;-7.20;99.90
9790;DHT22;4934;50.852;8.098;2022-12-18T03:21:58;-7.30;99.90
9790;DHT22;4934;50.852;8.098;2022-12-18T03:24:27;-7.30;99.90
9790;DHT22;4934;50.852;8.098;2022-12-18T03:26:57;-7.40;99.90
9790;DHT22;4934;50.852;8.098;2022-12-18T03:29:34;-7.50;99.90
9790;DHT22;4934;50.852;8.098;2022-12-18T03:32:15;-7.40;99.90
9790;DHT22;4934;50.852;8.098;2022-12-18T03:34:42;-7.30;99.90
9790;DHT22;4934;50.852;8.098;2022-12-18T03:37:11;-7.30;99.90
9790;DHT22;4934;50.852;8.098;2022-12-18T03:39:36;-7.20;99.90
9790;DHT22;4934;50.852;8.098;2022-12-18T03:47:28;-7.40;99.90
9790;DHT22;4934;50.852;8.098;2022-12-18T03:50:16;-7.30;99.90
9790;DHT22;4934;50.852;8.098;2022-12-18T03:52:52;-7.20;99.90
9790;DHT22;4934;50.852;8.098;2022-12-18T03:55:20;-7.30;99.90
9790;DHT22;4934;50.852;8.098;2022-12-18T03:57:48;-7.30;99.90
9790;DHT22;4934;50.852;8.098;2022-12-18T04:00:17;-7.30;99.90
9790;DHT22;4934;50.852;8.098;2022-12-18T04:02:46;-7.30;99.90
9790;DHT22;4934;50.852;8.098;2022-12-18T04:05:14;-7.40;99.90
9790;DHT22;4934;50.852;8.098;2022-12-18T04:07:41;-7.50;99.90
9790;DHT22;4934;50.852;8.098;2022-12-18T04:10:08;-7.50;99.90
9790;DHT22;4934;50.852;8.098;2022-12-18T04:12:37;-7.50;99.90
9790;DHT22;4934;50.852;8.098;2022-12-18T04:15:03;-7.40;99.90
9790;DHT22;4934;50.852;8.098;2022-12-18T04:17:29;-7.40;99.90
9790;DHT22;4934;50.852;8.098;2022-12-18T04:19:55;-7.40;99.90
9790;DHT22;4934;50.852;8.098;2022-12-18T04:22:20;-7.50;99.90
9790;DHT22;4934;50.852;8.098;2022-12-18T04:24:46;-7.50;99.90
9790;DHT22;4934;50.852;8.098;2022-12-18T04:27:11;-7.50;99.90
9790;DHT22;4934;50.852;8.098;2022-12-18T04:29:37;-7.50;99.90
9790;DHT22;4934;50.852;8.098;2022-12-18T04:32:03;-7.40;99.90
9790;DHT22;4934;50.852;8.098;2022-12-18T04:34:29;-7.30;99.90
9790;DHT22;4934;50.852;8.098;2022-12-18T04:36:54;-7.40;99.90
9790;DHT22;4934;50.852;8.098;2022-12-18T04:39:20;-7.40;99.90
9790;DHT22;4934;50.852;8.098;2022-12-18T04:41:46;-7.30;99.90
9790;DHT22;4934;50.852;8.098;2022-12-18T04:44:11;-7.10;99.90
9790;DHT22;4934;50.852;8.098;2022-12-18T04:46:37;-6.90;99.90
9790;DHT22;4934;50.852;8.098;2022-12-18T04:49:02;-7.00;99.90
9790;DHT22;4934;50.852;8.098;2022-12-18T04:51:28;-7.00;99.90
9790;DHT22;4934;50.852;8.098;2022-12-18T04:53:53;-7.00;99.90
9790;DHT22;4934;50.852;8.098;2022-12-18T04:56:19;-7.00;99.90
9790;DHT22;4934;50.852;8.098;2022-12-18T04:58:45;-7.10;99.90
9790;DHT22;4934;50.852;8.098;2022-12-18T05:01:12;-7.00;99.90
9790;DHT22;4934;50.852;8.098;2022-12-18T05:03:38;-7.10;99.90
9790;DHT22;4934;50.852;8.098;2022-12-18T05:06:05;-7.00;99.90
9790;DHT22;4934;50.852;8.098;2022-12-18T05:08:31;-7.00;99.90
9790;DHT22;4934;50.852;8.098;2022-12-18T05:11:08;-7.00;99.90
9790;DHT22;4934;50.852;8.098;2022-12-18T05:13:35;-7.00;99.90
9790;DHT22;4934;50.852;8.098;2022-12-18T05:16:01;-7.00;99.90
9790;DHT22;4934;50.852;8.098;2022-12-18T05:18:27;-7.00;99.90
9790;DHT22;4934;50.852;8.098;2022-12-18T05:20:53;-6.90;99.90
9790;DHT22;4934;50.852;8.098;2022-12-18T05:23:20;-6.90;99.90
9790;DHT22;4934;50.852;8.098;2022-12-18T05:25:57;-7.00;99.90
9790;DHT22;4934;50.852;8.098;2022-12-18T05:28:25;-6.90;99.90
9790;DHT22;4934;50.852;8.098;2022-12-18T05:30:53;-6.80;99.90
9790;DHT22;4934;50.852;8.098;2022-12-18T05:33:20;-6.80;99.90
9790;DHT22;4934;50.852;8.098;2022-12-18T05:35:51;-6.80;99.90
9790;DHT22;4934;50.852;8.098;2022-12-18T05:38:18;-6.70;99.90
9790;DHT22;4934;50.852;8.098;2022-12-18T05:40:43;-6.80;99.90
9790;DHT22;4934;50.852;8.098;2022-12-18T05:43:10;-6.80;99.90
9790;DHT22;4934;50.852;8.098;2022-12-18T05:45:39;-6.70;99.90
9790;DHT22;4934;50.852;8.098;2022-12-18T05:48:06;-6.60;99.90
9790;DHT22;4934;50.852;8.098;2022-12-18T05:50:39;-6.50;99.90
9790;DHT22;4934;50.852;8.098;2022-12-18T05:53:05;-6.40;99.90
9790;DHT22;4934;50.852;8.098;2022-12-18T05:55:35;-6.30;99.90
9790;DHT22;4934;50.852;8.098;2022-12-18T05:58:05;-6.30;99.90
9790;DHT22;4934;50.852;8.098;2022-12-18T06:00:34;-6.10;99.90
9790;DHT22;4934;50.852;8.098;2022-12-18T06:03:01;-6.00;99.90
9790;DHT22;4934;50.852;8.098;2022-12-18T06:05:27;-6.00;99.90
9790;DHT22;4934;50.852;8.098;2022-12-18T06:07:53;-6.00;99.90
9790;DHT22;4934;50.852;8.098;2022-12-18T06:10:19;-5.80;99.90
9790;DHT22;4934;50.852;8.098;2022-12-18T06:12:44;-5.80;99.90
9790;DHT22;4934;50.852;8.098;2022-12-18T06:15:10;-5.70;99.90
9790;DHT22;4934;50.852;8.098;2022-12-18T06:17:36;-5.70;99.90
9790;DHT22;4934;50.852;8.098;2022-12-18T06:20:03;-5.60;99.90
9790;DHT22;4934;50.852;8.098;2022-12-18T06:22:33;-5.60;99.90
9790;DHT22;4934;50.852;8.098;2022-12-18T06:24:58;-5.60;99.90
9790;DHT22;4934;50.852;8.098;2022-12-18T06:27:27;-5.50;99.90
9790;DHT22;4934;50.852;8.098;2022-12-18T06:29:52;-5.50;99.90
9790;DHT22;4934;50.852;8.098;2022-12-18T06:32:18;-5.60;99.90
9790;DHT22;4934;50.852;8.098;2022-12-18T06:34:43;-5.60;99.90
9790;DHT22;4934;50.852;8.098;2022-12-18T06:37:10;-5.70;99.90
9790;DHT22;4934;50.852;8.098;2022-12-18T06:39:36;-5.70;99.90
9790;DHT22;4934;50.852;8.098;2022-12-18T06:42:02;-5.70;99.90
9790;DHT22;4934;50.852;8.098;2022-12-18T06:44:28;-5.70;99.90
9790;DHT22;4934;50.852;8.098;2022-12-18T06:46:54;-5.80;99.90
9790;DHT22;4934;50.852;8.098;2022-12-18T06:49:20;-5.70;99.90
9790;DHT22;4934;50.852;8.098;2022-12-18T06:51:45;-5.70;99.90
9790;DHT22;4934;50.852;8.098;2022-12-18T06:54:11;-5.70;99.90
9790;DHT22;4934;50.852;8.098;2022-12-18T06:56:36;-5.70;99.90
9790;DHT22;4934;50.852;8.098;2022-12-18T06:59:02;-5.70;99.90
9790;DHT22;4934;50.852;8.098;2022-12-18T07:01:32;-5.70;99.90
9790;DHT22;4934;50.852;8.098;2022-12-18T07:03:57;-5.70;99.90
9790;DHT22;4934;50.852;8.098;2022-12-18T07:06:25;-5.70;99.90
9790;DHT22;4934;50.852;8.098;2022-12-18T07:08:54;-5.80;99.90
9790;DHT22;4934;50.852;8.098;2022-12-18T07:11:20;-5.60;99.90
9790;DHT22;4934;50.852;8.098;2022-12-18T07:13:46;-5.60;99.90
9790;DHT22;4934;50.852;8.098;2022-12-18T07:16:17;-5.60;99.90
9790;DHT22;4934;50.852;8.098;2022-12-18T07:18:43;-5.50;99.90
9790;DHT22;4934;50.852;8.098;2022-12-18T07:21:12;-5.50;99.90
9790;DHT22;4934;50.852;8.098;2022-12-18T07:23:38;-5.50;99.90
9790;DHT22;4934;50.852;8.098;2022-12-18T07:26:05;-5.40;99.90
9790;DHT22;4934;50.852;8.098;2022-12-18T07:28:32;-5.40;99.90
9790;DHT22;4934;50.852;8.098;2022-12-18T07:31:01;-5.50;99.90
9790;DHT22;4934;50.852;8.098;2022-12-18T07:33:27;-5.40;99.90
9790;DHT22;4934;50.852;8.098;2022-12-18T07:35:53;-5.40;99.90
9790;DHT22;4934;50.852;8.098;2022-12-18T07:38:19;-5.40;99.90
9790;DHT22;4934;50.852;8.098;2022-12-18T07:40:45;-5.40;99.90
9790;DHT22;4934;50.852;8.098;2022-12-18T07:43:11;-5.40;99.90
9790;DHT22;4934;50.852;8.098;2022-12-18T07:45:36;-5.30;99.90
9790;DHT22;4934;50.852;8.098;2022-12-18T07:48:02;-5.40;99.90
9790;DHT22;4934;50.852;8.098;2022-12-18T07:50:27;-5.30;99.90
9790;DHT22;4934;50.852;8.098;2022-12-18T07:52:53;-5.40;99.90
9790;DHT22;4934;50.852;8.098;2022-12-18T07:55:18;-5.30;99.90
9790;DHT22;4934;50.852;8.098;2022-12-18T07:57:44;-5.20;99.90
9790;DHT22;4934;50.852;8.098;2022-12-18T08:00:11;-5.20;99.90
9790;DHT22;4934;50.852;8.098;2022-12-18T08:02:37;-5.20;99.90
9790;DHT22;4934;50.852;8.098;2022-12-18T08:05:03;-5.10;99.90
9790;DHT22;4934;50.852;8.098;2022-12-18T08:07:29;-5.10;99.90
9790;DHT22;4934;50.852;8.098;2022-12-18T08:09:54;-5.00;99.90
9790;DHT22;4934;50.852;8.098;2022-12-18T08:12:20;-5.00;99.90
9790;DHT22;4934;50.852;8.098;2022-12-18T08:14:45;-5.00;99.90
9790;DHT22;4934;50.852;8.098;2022-12-18T08:17:11;-5.00;99.90
9790;DHT22;4934;50.852;8.098;2022-12-18T08:19:36;-5.00;99.90
9790;DHT22;4934;50.852;8.098;2022-12-18T08:22:02;-4.90;99.90
9790;DHT22;4934;50.852;8.098;2022-12-18T08:24:28;-4.90;99.90
9790;DHT22;4934;50.852;8.098;2022-12-18T08:26:53;-4.90;99.90
9790;DHT22;4934;50.852;8.098;2022-12-18T08:29:19;-4.80;99.90
9790;DHT22;4934;50.852;8.098;2022-12-18T08:31:45;-4.80;99.90
9790;DHT22;4934;50.852;8.098;2022-12-18T08:34:10;-4.80;99.90
9790;DHT22;4934;50.852;8.098;2022-12-18T08:36:36;-4.70;99.90
9790;DHT22;4934;50.852;8.098;2022-12-18T08:39:01;-4.60;99.90
9790;DHT22;4934;50.852;8.098;2022-12-18T08:41:27;-4.50;99.90
9790;DHT22;4934;50.852;8.098;2022-12-18T08:43:53;-4.60;99.90
9790;DHT22;4934;50.852;8.098;2022-12-18T08:46:39;-4.50;99.90
9790;DHT22;4934;50.852;8.098;2022-12-18T08:49:06;-4.60;99.90
9790;DHT22;4934;50.852;8.098;2022-12-18T08:51:33;-4.50;99.90
9790;DHT22;4934;50.852;8.098;2022-12-18T08:53:59;-4.40;99.90
9790;DHT22;4934;50.852;8.098;2022-12-18T08:56:24;-4.30;99.90
9790;DHT22;4934;50.852;8.098;2022-12-18T08:58:54;-4.20;99.90
9790;DHT22;4934;50.852;8.098;2022-12-18T09:01:20;-4.20;99.90
9790;DHT22;4934;50.852;8.098;2022-12-18T09:03:46;-4.20;99.90
9790;DHT22;4934;50.852;8.098;2022-12-18T09:06:19;-4.20;99.90
9790;DHT22;4934;50.852;8.098;2022-12-18T09:08:45;-4.20;99.90
9790;DHT22;4934;50.852;8.098;2022-12-18T09:11:37;-4.10;99.90
9790;DHT22;4934;50.852;8.098;2022-12-18T09:14:03;-4.00;99.90
9790;DHT22;4934;50.852;8.098;2022-12-18T09:16:29;-4.00;99.90
9790;DHT22;4934;50.852;8.098;2022-12-18T09:18:55;-3.90;99.90
9790;DHT22;4934;50.852;8.098;2022-12-18T09:21:26;-3.90;99.90
9790;DHT22;4934;50.852;8.098;2022-12-18T09:23:53;-3.70;99.90
9790;DHT22;4934;50.852;8.098;2022-12-18T09:26:23;-3.70;99.90
9790;DHT22;4934;50.852;8.098;2022-12-18T09:28:50;-3.70;99.90
9790;DHT22;4934;50.852;8.098;2022-12-18T09:31:17;-3.60;99.90
9790;DHT22;4934;50.852;8.098;2022-12-18T09:33:43;-3.60;99.90
9790;DHT22;4934;50.852;8.098;2022-12-18T09:36:12;-3.50;99.90
9790;DHT22;4934;50.852;8.098;2022-12-18T09:38:38;-3.40;99.90
9790;DHT22;4934;50.852;8.098;2022-12-18T09:49:23;-3.30;99.90
9790;DHT22;4934;50.852;8.098;2022-12-18T09:54:39;-3.20;99.90
9790;DHT22;4934;50.852;8.098;2022-12-18T09:57:17;-3.30;99.90
9790;DHT22;4934;50.852;8.098;2022-12-18T09:59:48;-3.30;99.90
9790;DHT22;4934;50.852;8.098;2022-12-18T10:02:20;-3.20;99.90
9790;DHT22;4934;50.852;8.098;2022-12-18T10:07:27;-3.10;99.90
9790;DHT22;4934;50.852;8.098;2022-12-18T10:10:14;-3.20;99.90
9790;DHT22;4934;50.852;8.098;2022-12-18T10:13:09;-3.20;99.90
9790;DHT22;4934;50.852;8.098;2022-12-18T10:15:52;-3.00;99.90
9790;DHT22;4934;50.852;8.098;2022-12-18T10:21:17;-3.00;99.90
9790;DHT22;4934;50.852;8.098;2022-12-18T10:27:06;-2.80;99.90
9790;DHT22;4934;50.852;8.098;2022-12-18T10:29:35;-2.90;99.90
9790;DHT22;4934;50.852;8.098;2022-12-18T10:32:00;-2.80;99.90
9790;DHT22;4934;50.852;8.098;2022-12-18T10:34:26;-2.80;99.90
9790;DHT22;4934;50.852;8.098;2022-12-18T10:36:52;-2.70;99.90
9790;DHT22;4934;50.852;8.098;2022-12-18T10:39:23;-2.70;99.90
9790;DHT22;4934;50.852;8.098;2022-12-18T10:41:50;-2.70;99.90
9790;DHT22;4934;50.852;8.098;2022-12-18T10:44:22;-2.60;99.90
9790;DHT22;4934;50.852;8.098;2022-12-18T10:46:50;-2.70;99.90
9790;DHT22;4934;50.852;8.098;2022-12-18T10:49:35;-2.70;99.90
9790;DHT22;4934;50.852;8.098;2022-12-18T10:52:15;-2.60;99.90
9790;DHT22;4934;50.852;8.098;2022-12-18T10:54:54;-2.60;99.90
9790;DHT22;4934;50.852;8.098;2022-12-18T10:59:54;-2.30;99.90
9790;DHT22;4934;50.852;8.098;2022-12-18T11:02:37;-2.20;99.90
9790;DHT22;4934;50.852;8.098;2022-12-18T11:05:29;-2.20;99.90
9790;DHT22;4934;50.852;8.098;2022-12-18T11:07:56;-2.20;99.90
9790;DHT22;4934;50.852;8.098;2022-12-18T11:10:32;-2.10;99.90
9790;DHT22;4934;50.852;8.098;2022-12-18T11:13:36;-2.20;99.90
9790;DHT22;4934;50.852;8.098;2022-12-18T11:16:03;-2.10;99.90
9790;DHT22;4934;50.852;8.098;2022-12-18T11:18:33;-2.10;99.90
9790;DHT22;4934;50.852;8.098;2022-12-18T11:21:06;-2.10;99.90
9790;DHT22;4934;50.852;8.098;2022-12-18T11:23:34;-2.10;99.90
9790;DHT22;4934;50.852;8.098;2022-12-18T11:26:04;-2.10;99.90
9790;DHT22;4934;50.852;8.098;2022-12-18T11:28:49;-2.20;99.90
9790;DHT22;4934;50.852;8.098;2022-12-18T11:31:25;-2.30;99.90
9790;DHT22;4934;50.852;8.098;2022-12-18T11:34:13;-2.20;99.90
9790;DHT22;4934;50.852;8.098;2022-12-18T11:36:45;-2.10;99.90
9790;DHT22;4934;50.852;8.098;2022-12-18T11:39:19;-2.10;99.90
9790;DHT22;4934;50.852;8.098;2022-12-18T11:41:56;-2.10;99.90
9790;DHT22;4934;50.852;8.098;2022-12-18T11:44:57;-2.10;99.90
9790;DHT22;4934;50.852;8.098;2022-12-18T11:47:29;-2.40;99.90
9790;DHT22;4934;50.852;8.098;2022-12-18T11:50:00;-2.30;99.90
9790;DHT22;4934;50.852;8.098;2022-12-18T11:52:40;-2.20;99.90
9790;DHT22;4934;50.852;8.098;2022-12-18T11:55:16;-2.00;99.90
9790;DHT22;4934;50.852;8.098;2022-12-18T12:00:22;-1.80;99.90
9790;DHT22;4934;50.852;8.098;2022-12-18T12:21:39;-1.70;99.90
9790;DHT22;4934;50.852;8.098;2022-12-18T12:27:34;-1.80;99.90
9790;DHT22;4934;50.852;8.098;2022-12-18T12:30:11;-1.80;99.90
9790;DHT22;4934;50.852;8.098;2022-12-18T12:33:05;-1.80;99.90
9790;DHT22;4934;50.852;8.098;2022-12-18T12:36:06;-1.90;99.90
9790;DHT22;4934;50.852;8.098;2022-12-18T12:38:57;-1.80;99.90
9790;DHT22;4934;50.852;8.098;2022-12-18T12:41:27;-1.80;99.90
9790;DHT22;4934;50.852;8.098;2022-12-18T12:44:26;-1.90;99.90
9790;DHT22;4934;50.852;8.098;2022-12-18T12:46:59;-1.80;99.90
9790;DHT22;4934;50.852;8.098;2022-12-18T12:49:31;-1.70;99.90
9790;DHT22;4934;50.852;8.098;2022-12-18T12:52:04;-1.70;99.90
9790;DHT22;4934;50.852;8.098;2022-12-18T12:54:32;-1.90;99.90
9790;DHT22;4934;50.852;8.098;2022-12-18T12:57:15;-1.90;99.90
9790;DHT22;4934;50.852;8.098;2022-12-18T13:00:21;-2.00;99.90
9790;DHT22;4934;50.852;8.098;2022-12-18T13:08:12;-2.40;99.90
9790;DHT22;4934;50.852;8.098;2022-12-18T13:10:46;-2.40;99.90
9790;DHT22;4934;50.852;8.098;2022-12-18T13:13:16;-2.50;99.90
9790;DHT22;4934;50.852;8.098;2022-12-18T13:16:03;-2.50;99.90
9790;DHT22;4934;50.852;8.098;2022-12-18T13:18:29;-2.50;99.90
9790;DHT22;4934;50.852;8.098;2022-12-18T13:26:00;-2.40;99.90
9790;DHT22;4934;50.852;8.098;2022-12-18T13:31:14;-2.40;99.90
9790;DHT22;4934;50.852;8.098;2022-12-18T13:34:22;-2.50;99.90
9790;DHT22;4934;50.852;8.098;2022-12-18T13:36:49;-2.60;99.90
9790;DHT22;4934;50.852;8.098;2022-12-18T13:41:41;-2.70;99.90
9790;DHT22;4934;50.852;8.098;2022-12-18T13:46:56;-2.80;99.90
9790;DHT22;4934;50.852;8.098;2022-12-18T13:52:02;-2.90;99.90
9790;DHT22;4934;50.852;8.098;2022-12-18T13:54:30;-3.00;99.90
9790;DHT22;4934;50.852;8.098;2022-12-18T13:56:58;-3.00;99.90
9790;DHT22;4934;50.852;8.098;2022-12-18T13:59:34;-3.00;99.90
9790;DHT22;4934;50.852;8.098;2022-12-18T14:04:37;-3.10;99.90
9790;DHT22;4934;50.852;8.098;2022-12-18T14:07:10;-3.10;99.90
9790;DHT22;4934;50.852;8.098;2022-12-18T14:09:59;-3.20;99.90
9790;DHT22;4934;50.852;8.098;2022-12-18T14:12:33;-3.30;99.90
9790;DHT22;4934;50.852;8.098;2022-12-18T14:17:53;-3.40;99.90
9790;DHT22;4934;50.852;8.098;2022-12-18T14:20:21;-3.40;99.90
9790;DHT22;4934;50.852;8.098;2022-12-18T14:22:48;-3.70;99.90
9790;DHT22;4934;50.852;8.098;2022-12-18T14:25:25;-3.70;99.90
9790;DHT22;4934;50.852;8.098;2022-12-18T14:27:59;-3.70;99.90
9790;DHT22;4934;50.852;8.098;2022-12-18T14:30:30;-3.80;99.90
9790;DHT22;4934;50.852;8.098;2022-12-18T14:33:10;-4.00;99.90
9790;DHT22;4934;50.852;8.098;2022-12-18T14:35:39;-4.00;99.90
9790;DHT22;4934;50.852;8.098;2022-12-18T14:40:56;-4.00;99.90
9790;DHT22;4934;50.852;8.098;2022-12-18T14:43:24;-4.10;99.90
9790;DHT22;4934;50.852;8.098;2022-12-18T14:45:50;-4.00;99.90
9790;DHT22;4934;50.852;8.098;2022-12-18T14:48:21;-4.00;99.90
9790;DHT22;4934;50.852;8.098;2022-12-18T14:53:40;-3.90;99.90
9790;DHT22;4934;50.852;8.098;2022-12-18T14:56:17;-4.10;99.90
9790;DHT22;4934;50.852;8.098;2022-12-18T14:59:04;-4.10;99.90
9790;DHT22;4934;50.852;8.098;2022-12-18T15:01:39;-4.10;99.90
9790;DHT22;4934;50.852;8.098;2022-12-18T15:04:38;-4.20;99.90
9790;DHT22;4934;50.852;8.098;2022-12-18T15:07:14;-4.20;99.90
9790;DHT22;4934;50.852;8.098;2022-12-18T15:10:10;-4.20;99.90
9790;DHT22;4934;50.852;8.098;2022-12-18T15:18:05;-4.50;99.90
9790;DHT22;4934;50.852;8.098;2022-12-18T15:20:43;-4.60;99.90
9790;DHT22;4934;50.852;8.098;2022-12-18T15:23:32;-4.60;99.90
9790;DHT22;4934;50.852;8.098;2022-12-18T15:28:37;-4.70;99.90
9790;DHT22;4934;50.852;8.098;2022-12-18T15:36:32;-4.80;99.90
9790;DHT22;4934;50.852;8.098;2022-12-18T15:39:02;-4.90;99.90
9790;DHT22;4934;50.852;8.098;2022-12-18T15:41:31;-5.00;99.90
9790;DHT22;4934;50.852;8.098;2022-12-18T15:43:58;-5.10;99.90
9790;DHT22;4934;50.852;8.098;2022-12-18T15:46:25;-5.20;99.90
9790;DHT22;4934;50.852;8.098;2022-12-18T15:48:53;-5.20;99.90
9790;DHT22;4934;50.852;8.098;2022-12-18T15:51:35;-5.30;99.90
9790;DHT22;4934;50.852;8.098;2022-12-18T15:54:04;-5.30;99.90
9790;DHT22;4934;50.852;8.098;2022-12-18T15:56:30;-5.30;99.90
9790;DHT22;4934;50.852;8.098;2022-12-18T15:59:17;-5.30;99.90
9790;DHT22;4934;50.852;8.098;2022-12-18T16:01:45;-5.10;99.90
9790;DHT22;4934;50.852;8.098;2022-12-18T16:04:25;-5.20;99.90
9790;DHT22;4934;50.852;8.098;2022-12-18T16:06:51;-5.20;99.90
9790;DHT22;4934;50.852;8.098;2022-12-18T16:09:17;-5.30;99.90
9790;DHT22;4934;50.852;8.098;2022-12-18T16:11:43;-5.30;99.90
9790;DHT22;4934;50.852;8.098;2022-12-18T16:14:35;-5.30;99.90
9790;DHT22;4934;50.852;8.098;2022-12-18T16:17:03;-5.20;99.90
9790;DHT22;4934;50.852;8.098;2022-12-18T16:19:30;-5.20;99.90
9790;DHT22;4934;50.852;8.098;2022-12-18T16:21:58;-5.30;99.90
9790;DHT22;4934;50.852;8.098;2022-12-18T16:24:26;-5.20;99.90
9790;DHT22;4934;50.852;8.098;2022-12-18T16:26:52;-5.20;99.90
9790;DHT22;4934;50.852;8.098;2022-12-18T16:29:19;-5.20;99.90
9790;DHT22;4934;50.852;8.098;2022-12-18T16:31:50;-5.10;99.90
9790;DHT22;4934;50.852;8.098;2022-12-18T16:34:27;-5.10;99.90
9790;DHT22;4934;50.852;8.098;2022-12-18T16:37:00;-5.10;99.90
9790;DHT22;4934;50.852;8.098;2022-12-18T16:39:26;-5.10;99.90
9790;DHT22;4934;50.852;8.098;2022-12-18T16:41:52;-5.20;99.90
9790;DHT22;4934;50.852;8.098;2022-12-18T16:44:18;-5.10;99.90
9790;DHT22;4934;50.852;8.098;2022-12-18T16:46:44;-5.10;99.90
9790;DHT22;4934;50.852;8.098;2022-12-18T16:49:12;-5.00;99.90
9790;DHT22;4934;50.852;8.098;2022-12-18T16:52:10;-5.20;99.90
9790;DHT22;4934;50.852;8.098;2022-12-18T16:54:36;-5.20;99.90
9790;DHT22;4934;50.852;8.098;2022-12-18T16:57:02;-5.10;99.90
9790;DHT22;4934;50.852;8.098;2022-12-18T16:59:34;-5.10;99.90
9790;DHT22;4934;50.852;8.098;2022-12-18T17:02:00;-5.10;99.90
9790;DHT22;4934;50.852;8.098;2022-12-18T17:04:26;-5.10;99.90
9790;DHT22;4934;50.852;8.098;2022-12-18T17:06:56;-5.00;99.90
9790;DHT22;4934;50.852;8.098;2022-12-18T17:09:27;-5.00;99.90
9790;DHT22;4934;50.852;8.098;2022-12-18T17:11:53;-5.10;99.90
9790;DHT22;4934;50.852;8.098;2022-12-18T17:14:21;-5.10;99.90
9790;DHT22;4934;50.852;8.098;2022-12-18T17:16:53;-5.10;99.90
9790;DHT22;4934;50.852;8.098;2022-12-18T17:19:19;-5.00;99.90
9790;DHT22;4934;50.852;8.098;2022-12-18T17:21:47;-5.10;99.90
9790;DHT22;4934;50.852;8.098;2022-12-18T17:24:15;-5.10;99.90
9790;DHT22;4934;50.852;8.098;2022-12-18T17:26:41;-5.00;99.90
9790;DHT22;4934;50.852;8.098;2022-12-18T17:29:08;-5.00;99.90
9790;DHT22;4934;50.852;8.098;2022-12-18T17:31:34;-5.00;99.90
9790;DHT22;4934;50.852;8.098;2022-12-18T17:34:01;-5.00;99.90
9790;DHT22;4934;50.852;8.098;2022-12-18T17:36:31;-4.90;99.90
9790;DHT22;4934;50.852;8.098;2022-12-18T17:38:59;-4.90;99.90
9790;DHT22;4934;50.852;8.098;2022-12-18T17:41:27;-4.90;99.90
9790;DHT22;4934;50.852;8.098;2022-12-18T17:44:04;-4.90;99.90
9790;DHT22;4934;50.852;8.098;2022-12-18T17:46:31;-4.90;99.90
9790;DHT22;4934;50.852;8.098;2022-12-18T17:48:59;-4.80;99.90
9790;DHT22;4934;50.852;8.098;2022-12-18T17:51:25;-4.80;99.90
9790;DHT22;4934;50.852;8.098;2022-12-18T17:53:51;-4.80;99.90
9790;DHT22;4934;50.852;8.098;2022-12-18T17:56:20;-4.80;99.90
9790;DHT22;4934;50.852;8.098;2022-12-18T17:58:46;-4.70;99.90
9790;DHT22;4934;50.852;8.098;2022-12-18T18:01:14;-4.80;99.90
9790;DHT22;4934;50.852;8.098;2022-12-18T18:03:40;-4.70;99.90
9790;DHT22;4934;50.852;8.098;2022-12-18T18:06:06;-4.70;99.90
9790;DHT22;4934;50.852;8.098;2022-12-18T18:08:41;-4.70;99.90
9790;DHT22;4934;50.852;8.098;2022-12-18T18:11:12;-4.60;99.90
9790;DHT22;4934;50.852;8.098;2022-12-18T18:13:57;-4.60;99.90
9790;DHT22;4934;50.852;8.098;2022-12-18T18:16:35;-4.60;99.90
9790;DHT22;4934;50.852;8.098;2022-12-18T18:19:04;-4.50;99.90
9790;DHT22;4934;50.852;8.098;2022-12-18T18:21:30;-4.60;99.90